Time;durP1;ratioP1;P1;durP2;ratioP2;P2;SDS_P1;SDS_P2;PMS_P1;PMS_P2;Temp;Humidity;BMP_temperature;BMP_pressure;BME280_temperature;BME280_humidity;BME280_pressure;Samples;Min_cycle;Max_cycle;Signal;HPM_P1;HPM_P2
2023/04/13 00:01:32;;;;;;;122.78;104.55;;;;;;;;;;5036190;28;20189;-50
2023/04/13 00:04:01;;;;;;;118.47;100.43;;;;;;;;;;5034988;28;20176;-51
2023/04/13 00:06:28;;;;;;;115.50;99.05;;;;;;;;;;5035153;28;20182;-50
2023/04/13 00:08:54;;;;;;;115.78;97.18;;;;;;;;;;5033585;28;20270;-51
2023/04/13 00:11:20;;;;;;;119.18;98.72;;;;;;;;;;5034136;28;20568;-50
2023/04/13 00:13:46;;;;;;;111.95;95.00;;;;;;;;;;5035484;28;20176;-50
2023/04/13 00:16:14;;;;;;;113.43;94.07;;;;;;;;;;5034444;28;20202;-51
2023/04/13 00:18:41;;;;;;;105.00;90.25;;;;;;;;;;5034373;28;20568;-51
2023/04/13 00:21:07;;;;;;;106.35;89.97;;;;;;;;;;5026508;28;20251;-51
2023/04/13 00:23:34;;;;;;;107.50;89.97;;;;;;;;;;5035337;28;20187;-51
2023/04/13 00:26:00;;;;;;;99.82;84.82;;;;;;;;;;5027563;28;20187;-50
2023/04/13 00:28:28;;;;;;;99.15;86.13;;;;;;;;;;5033750;28;20444;-50
2023/04/13 00:30:54;;;;;;;97.65;81.88;;;;;;;;;;5027471;28;20184;-50
2023/04/13 00:33:20;;;;;;;96.43;80.40;;;;;;;;;;5024458;28;20180;-50
2023/04/13 00:35:46;;;;;;;91.65;76.70;;;;;;;;;;5028892;28;20482;-50
2023/04/13 00:38:12;;;;;;;87.15;76.20;;;;;;;;;;5029482;28;20211;-50
2023/04/13 00:40:39;;;;;;;86.70;73.38;;;;;;;;;;5028920;28;20180;-50
2023/04/13 00:43:05;;;;;;;85.22;72.95;;;;;;;;;;5033589;28;20434;-51
2023/04/13 00:45:36;;;;;;;84.80;73.20;;;;;;;;;;5032800;28;20190;-50
2023/04/13 00:48:03;;;;;;;85.35;70.22;;;;;;;;;;5034808;28;20207;-50
2023/04/13 00:50:29;;;;;;;80.10;66.70;;;;;;;;;;5028567;28;20225;-50
2023/04/13 00:52:56;;;;;;;74.05;64.47;;;;;;;;;;5028895;28;20191;-50
2023/04/13 00:55:23;;;;;;;72.72;63.08;;;;;;;;;;5033842;28;20179;-50
2023/04/13 00:57:51;;;;;;;72.57;60.72;;;;;;;;;;5034390;28;20199;-50
2023/04/13 01:00:17;;;;;;;73.68;60.63;;;;;;;;;;5033425;28;20176;-50
2023/04/13 01:02:43;;;;;;;67.15;58.28;;;;;;;;;;5030659;28;20190;-50
2023/04/13 01:05:14;;;;;;;70.72;57.53;;;;;;;;;;5026904;28;20466;-51
2023/04/13 01:07:59;;;;;;;71.57;58.78;;;;;;;;;;5027939;28;20176;-50
2023/04/13 01:10:34;;;;;;;69.78;57.08;;;;;;;;;;5023290;28;20234;-51
2023/04/13 01:13:06;;;;;;;63.15;54.40;;;;;;;;;;5032068;28;20233;-50
2023/04/13 01:15:45;;;;;;;61.47;52.60;;;;;;;;;;5033595;28;20829;-50
2023/04/13 01:18:12;;;;;;;60.70;51.45;;;;;;;;;;5027750;28;20196;-50
2023/04/13 01:20:40;;;;;;;62.05;52.30;;;;;;;;;;5034336;28;20190;-50
2023/04/13 01:23:14;;;;;;;59.10;50.42;;;;;;;;;;5028751;28;20187;-51
2023/04/13 01:25:44;;;;;;;58.70;50.28;;;;;;;;;;5012456;28;20555;-50
2023/04/13 01:28:18;;;;;;;57.38;48.47;;;;;;;;;;5032255;28;20242;-51
2023/04/13 01:30:45;;;;;;;53.83;47.92;;;;;;;;;;5034190;28;20180;-50
2023/04/13 01:33:11;;;;;;;56.60;47.80;;;;;;;;;;5033531;28;20552;-50
2023/04/13 01:35:38;;;;;;;53.42;45.17;;;;;;;;;;5027496;28;20187;-50
2023/04/13 01:38:05;;;;;;;50.35;44.33;;;;;;;;;;5033982;28;20208;-50
2023/04/13 01:40:33;;;;;;;49.90;43.33;;;;;;;;;;5031405;28;20180;-50
2023/04/13 01:43:00;;;;;;;50.42;43.67;;;;;;;;;;5031419;28;20164;-50
2023/04/13 01:45:38;;;;;;;48.05;41.63;;;;;;;;;;5024400;28;20193;-50
2023/04/13 01:48:11;;;;;;;46.85;40.53;;;;;;;;;;5034000;28;20215;-50
2023/04/13 01:50:40;;;;;;;47.55;39.85;;;;;;;;;;5033743;28;20479;-50
2023/04/13 01:53:15;;;;;;;46.90;40.53;;;;;;;;;;5034427;28;20314;-50
2023/04/13 01:55:41;;;;;;;44.15;39.33;;;;;;;;;;5027046;28;20266;-50
2023/04/13 01:58:12;;;;;;;44.53;38.90;;;;;;;;;;5028722;28;20215;-50
2023/04/13 02:00:38;;;;;;;41.10;35.92;;;;;;;;;;5028419;28;20179;-51
2023/04/13 02:03:05;;;;;;;41.00;35.45;;;;;;;;;;5025947;28;20177;-50
2023/04/13 02:05:31;;;;;;;41.13;36.58;;;;;;;;;;5032917;28;20551;-50
2023/04/13 02:07:57;;;;;;;39.70;34.47;;;;;;;;;;5033495;28;20366;-50
2023/04/13 02:10:23;;;;;;;41.38;35.17;;;;;;;;;;5033055;28;20270;-48
2023/04/13 02:12:49;;;;;;;40.42;33.92;;;;;;;;;;5029421;28;20262;-50
2023/04/13 02:15:15;;;;;;;37.90;33.45;;;;;;;;;;5032254;28;20554;-50
2023/04/13 02:17:43;;;;;;;39.17;34.05;;;;;;;;;;5033130;28;20500;-50
2023/04/13 02:20:12;;;;;;;35.95;31.38;;;;;;;;;;5025579;28;20176;-50
2023/04/13 02:22:40;;;;;;;36.97;31.15;;;;;;;;;;5030567;28;20515;-50
2023/04/13 02:25:07;;;;;;;34.63;29.92;;;;;;;;;;5033519;28;20267;-51
2023/04/13 02:27:34;;;;;;;33.05;28.08;;;;;;;;;;5024804;28;20199;-50
2023/04/13 02:30:00;;;;;;;31.65;27.80;;;;;;;;;;5030769;28;20180;-50
2023/04/13 02:32:28;;;;;;;29.88;26.65;;;;;;;;;;5030418;28;20290;-50
2023/04/13 02:34:54;;;;;;;33.53;27.65;;;;;;;;;;5035214;28;20180;-50
2023/04/13 02:37:20;;;;;;;30.60;27.17;;;;;;;;;;5027884;28;20763;-50
2023/04/13 02:39:46;;;;;;;29.80;26.50;;;;;;;;;;5036964;28;20662;-50
2023/04/13 02:42:12;;;;;;;28.77;24.88;;;;;;;;;;5036840;28;20180;-50
2023/04/13 02:44:38;;;;;;;29.52;25.85;;;;;;;;;;5035641;28;20224;-50
2023/04/13 02:47:05;;;;;;;28.27;24.88;;;;;;;;;;5030368;28;20659;-50
2023/04/13 02:49:31;;;;;;;28.98;24.65;;;;;;;;;;5034604;28;20190;-50
2023/04/13 02:51:57;;;;;;;27.70;24.10;;;;;;;;;;5032927;28;20520;-50
2023/04/13 02:54:23;;;;;;;27.33;23.30;;;;;;;;;;5037128;28;20184;-50
2023/04/13 02:56:49;;;;;;;27.20;23.35;;;;;;;;;;5036030;28;20457;-50
2023/04/13 02:59:15;;;;;;;24.88;22.27;;;;;;;;;;5036401;28;20222;-50
2023/04/13 03:01:44;;;;;;;25.48;21.95;;;;;;;;;;5035187;28;20241;-50
2023/04/13 03:04:10;;;;;;;24.20;21.60;;;;;;;;;;5033510;28;20686;-50
2023/04/13 03:06:36;;;;;;;22.17;19.88;;;;;;;;;;5035760;28;20590;-50
2023/04/13 03:09:03;;;;;;;21.90;19.58;;;;;;;;;;5037095;28;20323;-50
2023/04/13 03:11:29;;;;;;;21.77;19.40;;;;;;;;;;5031724;28;20234;-50
2023/04/13 03:13:56;;;;;;;22.45;20.05;;;;;;;;;;5036740;28;20179;-50
2023/04/13 03:16:22;;;;;;;20.80;18.60;;;;;;;;;;5034438;28;20211;-50
2023/04/13 03:18:50;;;;;;;21.20;18.90;;;;;;;;;;5036692;28;20239;-50
2023/04/13 03:21:16;;;;;;;21.20;18.20;;;;;;;;;;5033810;28;20267;-50
2023/04/13 03:23:43;;;;;;;19.15;17.15;;;;;;;;;;5036820;28;20251;-50
2023/04/13 03:26:09;;;;;;;19.50;17.33;;;;;;;;;;5034159;28;20216;-50
2023/04/13 03:28:35;;;;;;;18.08;16.08;;;;;;;;;;5036382;28;20523;-50
2023/04/13 03:31:01;;;;;;;18.85;16.95;;;;;;;;;;5031802;28;20199;-50
2023/04/13 03:33:27;;;;;;;18.23;16.30;;;;;;;;;;5035184;28;20254;-50
2023/04/13 03:35:53;;;;;;;17.42;15.45;;;;;;;;;;5036188;28;20188;-50
2023/04/13 03:38:19;;;;;;;17.25;15.48;;;;;;;;;;5035790;28;20251;-50
2023/04/13 03:40:45;;;;;;;16.45;14.70;;;;;;;;;;5035727;28;20186;-50
2023/04/13 03:43:11;;;;;;;14.98;13.38;;;;;;;;;;5035568;28;20172;-50
2023/04/13 03:45:37;;;;;;;16.02;14.38;;;;;;;;;;5032916;28;20176;-50
2023/04/13 03:48:04;;;;;;;14.75;13.23;;;;;;;;;;5035545;28;20195;-50
2023/04/13 03:50:31;;;;;;;15.35;13.70;;;;;;;;;;5028417;28;20193;-51
2023/04/13 03:52:57;;;;;;;15.27;13.65;;;;;;;;;;5035949;28;20176;-50
2023/04/13 03:55:23;;;;;;;14.75;13.20;;;;;;;;;;5035561;28;20249;-50
2023/04/13 03:57:49;;;;;;;15.20;13.60;;;;;;;;;;5035466;28;20541;-50
2023/04/13 04:00:15;;;;;;;13.77;12.35;;;;;;;;;;5035295;28;20544;-50
2023/04/13 04:02:41;;;;;;;13.18;11.88;;;;;;;;;;5035869;28;20192;-50
2023/04/13 04:05:08;;;;;;;13.07;11.73;;;;;;;;;;5035524;28;20195;-51
2023/04/13 04:07:34;;;;;;;14.75;12.57;;;;;;;;;;5035788;28;20188;-50
2023/04/13 04:09:59;;;;;;;13.82;12.38;;;;;;;;;;5035577;28;20183;-50
2023/04/13 04:12:25;;;;;;;13.25;11.27;;;;;;;;;;5035412;28;20192;-50
2023/04/13 04:14:51;;;;;;;12.75;11.30;;;;;;;;;;5035408;28;20590;-50
2023/04/13 04:17:17;;;;;;;12.40;11.07;;;;;;;;;;5033370;28;20187;-50
2023/04/13 04:19:43;;;;;;;12.45;11.15;;;;;;;;;;5035112;28;20570;-51
2023/04/13 04:22:09;;;;;;;12.00;10.75;;;;;;;;;;5028843;28;20172;-50
2023/04/13 04:24:35;;;;;;;12.30;10.63;;;;;;;;;;5027862;28;20255;-50
2023/04/13 04:27:01;;;;;;;11.60;10.40;;;;;;;;;;5033582;28;20258;-50
2023/04/13 04:29:33;;;;;;;11.93;10.68;;;;;;;;;;5027296;28;20836;-51
2023/04/13 04:32:03;;;;;;;10.65;9.55;;;;;;;;;;5034853;28;20222;-51
2023/04/13 04:34:30;;;;;;;11.00;9.52;;;;;;;;;;5032879;28;20188;-50
2023/04/13 04:36:56;;;;;;;10.35;9.27;;;;;;;;;;5034430;28;20181;-50
2023/04/13 04:39:22;;;;;;;10.55;9.45;;;;;;;;;;5029930;28;20295;-50
2023/04/13 04:41:53;;;;;;;10.50;9.40;;;;;;;;;;5033649;28;20333;-50
2023/04/13 04:44:19;;;;;;;11.25;9.30;;;;;;;;;;5034832;28;20330;-50
2023/04/13 04:46:47;;;;;;;10.65;9.10;;;;;;;;;;5033585;28;20194;-50
2023/04/13 04:49:14;;;;;;;10.07;8.90;;;;;;;;;;5034818;28;20184;-50
2023/04/13 04:51:39;;;;;;;9.40;8.40;;;;;;;;;;5027049;28;20219;-50
2023/04/13 04:54:06;;;;;;;8.95;8.02;;;;;;;;;;5035337;28;20253;-50
2023/04/13 04:56:32;;;;;;;10.13;8.27;;;;;;;;;;5029927;28;20183;-50
2023/04/13 04:58:58;;;;;;;10.57;8.40;;;;;;;;;;5034241;28;20207;-50
2023/04/13 05:01:25;;;;;;;8.85;7.95;;;;;;;;;;5027012;28;20437;-50
2023/04/13 05:03:51;;;;;;;8.88;7.93;;;;;;;;;;5029923;28;20191;-50
2023/04/13 05:06:17;;;;;;;8.02;7.22;;;;;;;;;;5025824;28;20199;-50
2023/04/13 05:08:43;;;;;;;10.23;7.53;;;;;;;;;;5015940;28;20183;-50
2023/04/13 05:11:10;;;;;;;8.32;6.90;;;;;;;;;;5033096;28;20183;-50
2023/04/13 05:13:36;;;;;;;8.00;6.90;;;;;;;;;;5034880;28;20262;-50
2023/04/13 05:16:04;;;;;;;9.30;6.78;;;;;;;;;;5034334;28;20550;-50
2023/04/13 05:18:33;;;;;;;7.97;7.15;;;;;;;;;;5034259;28;20204;-50
2023/04/13 05:20:59;;;;;;;7.07;6.38;;;;;;;;;;5027699;28;20177;-50
2023/04/13 05:23:26;;;;;;;8.32;7.05;;;;;;;;;;5031665;28;20249;-50
2023/04/13 05:25:52;;;;;;;7.13;6.40;;;;;;;;;;5024178;28;20173;-50
2023/04/13 05:28:18;;;;;;;8.05;6.82;;;;;;;;;;5025226;28;20262;-50
2023/04/13 05:30:44;;;;;;;8.35;6.30;;;;;;;;;;5031804;28;20188;-51
2023/04/13 05:33:10;;;;;;;7.05;6.35;;;;;;;;;;5033843;28;20543;-51
2023/04/13 05:35:38;;;;;;;7.63;6.22;;;;;;;;;;5022552;28;20192;-50
2023/04/13 05:38:04;;;;;;;8.90;6.28;;;;;;;;;;5027347;28;20202;-50
2023/04/13 05:40:32;;;;;;;7.90;5.82;;;;;;;;;;5029310;28;20216;-50
2023/04/13 05:42:58;;;;;;;6.82;6.07;;;;;;;;;;5029422;28;20487;-51
2023/04/13 05:45:24;;;;;;;6.95;6.25;;;;;;;;;;5030741;28;20188;-50
2023/04/13 05:47:50;;;;;;;7.93;6.50;;;;;;;;;;5029311;28;20199;-50
2023/04/13 05:50:16;;;;;;;6.65;5.68;;;;;;;;;;5034339;28;20538;-50
2023/04/13 05:52:42;;;;;;;5.90;5.30;;;;;;;;;;5033971;28;20203;-50
2023/04/13 05:55:08;;;;;;;6.85;5.35;;;;;;;;;;5026781;28;20180;-51
2023/04/13 05:57:34;;;;;;;6.18;5.32;;;;;;;;;;5021352;28;20238;-50
2023/04/13 06:00:00;;;;;;;5.60;5.03;;;;;;;;;;5031603;28;20494;-51
2023/04/13 06:02:26;;;;;;;5.50;4.75;;;;;;;;;;5033501;28;20597;-50
2023/04/13 06:04:53;;;;;;;5.53;4.88;;;;;;;;;;5033340;28;20183;-49
2023/04/13 06:07:20;;;;;;;6.05;5.43;;;;;;;;;;5031340;28;20302;-50
2023/04/13 06:09:46;;;;;;;6.45;5.40;;;;;;;;;;5037294;28;20481;-50
2023/04/13 06:12:12;;;;;;;5.80;5.18;;;;;;;;;;5030692;28;20184;-50
2023/04/13 06:14:38;;;;;;;5.60;4.82;;;;;;;;;;5029389;28;20238;-50
2023/04/13 06:17:04;;;;;;;5.75;4.88;;;;;;;;;;5033701;28;20493;-50
2023/04/13 06:19:30;;;;;;;6.63;4.80;;;;;;;;;;5035764;28;20334;-48
2023/04/13 06:21:57;;;;;;;6.05;4.90;;;;;;;;;;5035450;28;20176;-50
2023/04/13 06:24:23;;;;;;;5.03;4.55;;;;;;;;;;5035606;28;20446;-50
2023/04/13 06:26:50;;;;;;;5.22;4.72;;;;;;;;;;5035645;28;20180;-50
2023/04/13 06:29:16;;;;;;;5.45;4.50;;;;;;;;;;5033301;28;20180;-50
2023/04/13 06:31:41;;;;;;;4.47;4.07;;;;;;;;;;5036608;28;20194;-50
2023/04/13 06:34:08;;;;;;;4.63;4.22;;;;;;;;;;5032714;28;20270;-51
2023/04/13 06:36:34;;;;;;;5.68;3.95;;;;;;;;;;5035862;28;20196;-50
2023/04/13 06:39:00;;;;;;;4.47;3.97;;;;;;;;;;5035753;28;20265;-50
2023/04/13 06:41:26;;;;;;;4.43;4.00;;;;;;;;;;5035592;28;20551;-50
2023/04/13 06:43:52;;;;;;;4.88;3.97;;;;;;;;;;5032620;28;20203;-50
2023/04/13 06:46:18;;;;;;;4.20;3.55;;;;;;;;;;5031350;28;20218;-50
2023/04/13 06:48:44;;;;;;;4.18;3.78;;;;;;;;;;5036773;28;20631;-50
2023/04/13 06:51:10;;;;;;;4.15;3.67;;;;;;;;;;5031786;28;20184;-50
2023/04/13 06:53:37;;;;;;;3.78;3.47;;;;;;;;;;5035965;28;20254;-50
2023/04/13 06:56:03;;;;;;;3.85;3.42;;;;;;;;;;5036435;28;20775;-51
2023/04/13 06:58:29;;;;;;;3.83;3.53;;;;;;;;;;5029254;28;20295;-50
2023/04/13 07:00:55;;;;;;;4.32;3.90;;;;;;;;;;5029144;28;20186;-50
2023/04/13 07:03:20;;;;;;;3.22;2.78;;;;;;;;;;5033376;28;20200;-50
2023/04/13 07:05:46;;;;;;;3.50;3.20;;;;;;;;;;5033087;28;20574;-50
2023/04/13 07:08:12;;;;;;;3.55;2.88;;;;;;;;;;5027411;28;20188;-50
2023/04/13 07:10:39;;;;;;;3.75;3.15;;;;;;;;;;5036520;28;20199;-50
2023/04/13 07:13:06;;;;;;;3.50;3.20;;;;;;;;;;5036206;28;20180;-50
2023/04/13 07:15:32;;;;;;;3.20;2.90;;;;;;;;;;5035386;28;20172;-50
2023/04/13 07:17:58;;;;;;;3.33;2.80;;;;;;;;;;5035240;28;20230;-50
2023/04/13 07:20:24;;;;;;;3.08;2.78;;;;;;;;;;5035097;28;20183;-50
2023/04/13 07:22:50;;;;;;;3.25;2.72;;;;;;;;;;5035730;28;20551;-50
2023/04/13 07:25:16;;;;;;;2.97;2.67;;;;;;;;;;5035785;28;20241;-50
2023/04/13 07:27:41;;;;;;;3.00;2.70;;;;;;;;;;5031070;28;20183;-50
2023/04/13 07:30:07;;;;;;;4.13;2.65;;;;;;;;;;5036135;28;20179;-50
2023/04/13 07:32:33;;;;;;;2.42;2.22;;;;;;;;;;5031842;28;20246;-50
2023/04/13 07:35:00;;;;;;;2.58;2.20;;;;;;;;;;5032677;28;20494;-50
2023/04/13 07:37:26;;;;;;;2.60;2.40;;;;;;;;;;5027201;28;20451;-50
2023/04/13 07:39:52;;;;;;;2.50;2.28;;;;;;;;;;5018361;28;20188;-50
2023/04/13 07:42:18;;;;;;;2.45;2.22;;;;;;;;;;5034534;28;20500;-50
2023/04/13 07:44:44;;;;;;;2.58;2.17;;;;;;;;;;5023025;28;20184;-50
2023/04/13 07:47:11;;;;;;;2.53;2.20;;;;;;;;;;5028292;28;20190;-50
2023/04/13 07:49:37;;;;;;;2.42;2.20;;;;;;;;;;5035286;28;20176;-50
2023/04/13 07:52:03;;;;;;;2.33;2.13;;;;;;;;;;5032579;28;20640;-50
2023/04/13 07:54:29;;;;;;;2.08;1.90;;;;;;;;;;5025973;28;20494;-50
2023/04/13 07:56:57;;;;;;;2.30;2.10;;;;;;;;;;5029670;28;20171;-50
2023/04/13 07:59:23;;;;;;;2.30;2.10;;;;;;;;;;5034978;28;20595;-50
2023/04/13 08:01:48;;;;;;;2.30;2.10;;;;;;;;;;5035054;28;20219;-50
2023/04/13 08:04:14;;;;;;;2.80;2.00;;;;;;;;;;5034232;28;20202;-50
2023/04/13 08:06:40;;;;;;;2.10;1.90;;;;;;;;;;5031222;28;20206;-50
2023/04/13 08:09:07;;;;;;;2.67;2.20;;;;;;;;;;5028826;28;20187;-50
2023/04/13 08:11:32;;;;;;;2.10;1.90;;;;;;;;;;5035673;28;20301;-50
2023/04/13 08:13:58;;;;;;;2.05;1.85;;;;;;;;;;5031739;28;20535;-50
2023/04/13 08:16:24;;;;;;;2.30;2.10;;;;;;;;;;5031213;28;20192;-50
2023/04/13 08:18:50;;;;;;;2.25;1.88;;;;;;;;;;5034578;28;20203;-50
2023/04/13 08:21:17;;;;;;;2.40;2.03;;;;;;;;;;5034298;28;20179;-50
2023/04/13 08:23:43;;;;;;;2.72;1.90;;;;;;;;;;5030460;28;20544;-50
2023/04/13 08:26:17;;;;;;;1.65;1.50;;;;;;;;;;5035396;28;20237;-50
2023/04/13 08:28:43;;;;;;;2.10;1.88;;;;;;;;;;5029857;28;20586;-50
2023/04/13 08:31:09;;;;;;;1.70;1.58;;;;;;;;;;5034950;28;20590;-50
2023/04/13 08:33:35;;;;;;;1.77;1.67;;;;;;;;;;5029123;28;20250;-50
2023/04/13 08:36:01;;;;;;;1.60;1.50;;;;;;;;;;5034962;28;20191;-50
2023/04/13 08:38:27;;;;;;;1.35;1.25;;;;;;;;;;5032828;28;20230;-50
2023/04/13 08:40:53;;;;;;;1.65;1.52;;;;;;;;;;5028535;28;20180;-50
2023/04/13 08:43:19;;;;;;;1.65;1.55;;;;;;;;;;5030912;28;20180;-50
2023/04/13 08:45:47;;;;;;;1.60;1.50;;;;;;;;;;5033823;28;20184;-50
2023/04/13 08:48:14;;;;;;;1.52;1.42;;;;;;;;;;5034380;28;20196;-50
2023/04/13 08:50:41;;;;;;;1.67;1.58;;;;;;;;;;5024198;28;20180;-50
2023/04/13 08:53:08;;;;;;;2.08;1.42;;;;;;;;;;5028670;28;20188;-50
2023/04/13 08:55:34;;;;;;;1.52;1.38;;;;;;;;;;5030062;28;20271;-48
2023/04/13 08:58:03;;;;;;;1.40;1.30;;;;;;;;;;5027822;28;20192;-50
2023/04/13 09:00:29;;;;;;;1.63;1.50;;;;;;;;;;5033921;28;20554;-50
2023/04/13 09:02:59;;;;;;;1.48;1.38;;;;;;;;;;5033109;28;20203;-50
2023/04/13 09:05:27;;;;;;;1.77;1.63;;;;;;;;;;5033083;28;20171;-50
2023/04/13 09:07:55;;;;;;;1.33;1.23;;;;;;;;;;5033686;28;20479;-50
2023/04/13 09:10:22;;;;;;;2.38;1.40;;;;;;;;;;5028258;28;20194;-51
2023/04/13 09:12:49;;;;;;;1.45;1.35;;;;;;;;;;5016043;28;20187;-50
2023/04/13 09:15:15;;;;;;;1.40;1.30;;;;;;;;;;5029473;28;20179;-50
2023/04/13 09:17:42;;;;;;;1.75;1.35;;;;;;;;;;5027813;28;20204;-50
2023/04/13 09:20:20;;;;;;;1.33;1.20;;;;;;;;;;5033982;28;20175;-50
2023/04/13 09:22:46;;;;;;;1.58;1.10;;;;;;;;;;5028143;28;20171;-50
2023/04/13 09:25:22;;;;;;;2.63;1.25;;;;;;;;;;5029520;28;20550;-50
2023/04/13 09:27:48;;;;;;;1.17;1.10;;;;;;;;;;5027488;28;20175;-50
2023/04/13 09:30:15;;;;;;;1.30;1.20;;;;;;;;;;5031015;28;20182;-50
2023/04/13 09:32:41;;;;;;;1.45;1.30;;;;;;;;;;5016360;28;21497;-50
2023/04/13 09:35:07;;;;;;;1.35;1.25;;;;;;;;;;5034034;28;20202;-50
2023/04/13 09:37:36;;;;;;;1.40;1.05;;;;;;;;;;5034021;28;20881;-50
2023/04/13 09:40:12;;;;;;;2.08;1.00;;;;;;;;;;5034397;28;20198;-50
2023/04/13 09:42:40;;;;;;;1.48;1.20;;;;;;;;;;5034620;28;20184;-50
2023/04/13 09:45:06;;;;;;;1.48;1.17;;;;;;;;;;5038324;28;20176;-50
2023/04/13 09:47:37;;;;;;;1.20;1.10;;;;;;;;;;5037078;28;20206;-50
2023/04/13 09:50:04;;;;;;;1.30;1.17;;;;;;;;;;5038407;28;20408;-50
2023/04/13 09:52:31;;;;;;;0.90;0.90;;;;;;;;;;5038621;28;20186;-50
2023/04/13 09:55:00;;;;;;;1.58;1.20;;;;;;;;;;5038154;28;20168;-50
2023/04/13 09:57:26;;;;;;;1.38;1.00;;;;;;;;;;5037215;28;20245;-50
2023/04/13 09:59:53;;;;;;;1.10;1.00;;;;;;;;;;5030324;28;20221;-51
2023/04/13 10:02:19;;;;;;;2.42;1.05;;;;;;;;;;5038243;28;20302;-50
2023/04/13 10:04:45;;;;;;;1.00;1.00;;;;;;;;;;5037538;28;20217;-50
2023/04/13 10:07:12;;;;;;;1.23;1.13;;;;;;;;;;5033453;28;20184;-50
2023/04/13 10:09:38;;;;;;;1.10;1.00;;;;;;;;;;5030015;28;20521;-50
2023/04/13 10:12:04;;;;;;;1.23;1.13;;;;;;;;;;5031537;28;20199;-50
2023/04/13 10:14:35;;;;;;;1.20;0.98;;;;;;;;;;5036221;28;20184;-50
2023/04/13 10:17:20;;;;;;;1.10;1.00;;;;;;;;;;5037373;28;20183;-50
2023/04/13 10:19:48;;;;;;;1.30;1.08;;;;;;;;;;5037892;28;20226;-50
2023/04/13 10:22:15;;;;;;;1.00;1.00;;;;;;;;;;5033917;28;20216;-50
2023/04/13 10:24:41;;;;;;;1.33;0.90;;;;;;;;;;5035162;28;20184;-50
2023/04/13 10:27:11;;;;;;;1.00;0.90;;;;;;;;;;5036146;28;20253;-50
2023/04/13 10:29:37;;;;;;;2.20;1.00;;;;;;;;;;5036286;28;20203;-50
2023/04/13 10:32:03;;;;;;;1.30;1.02;;;;;;;;;;5037033;28;20494;-50
2023/04/13 10:34:30;;;;;;;0.90;0.90;;;;;;;;;;5036140;28;20455;-50
2023/04/13 10:37:01;;;;;;;1.17;1.10;;;;;;;;;;5034734;28;20250;-50
2023/04/13 10:39:28;;;;;;;0.98;0.90;;;;;;;;;;5032210;28;20204;-50
2023/04/13 10:42:07;;;;;;;3.30;1.00;;;;;;;;;;5028275;28;20180;-50
2023/04/13 10:44:46;;;;;;;0.98;0.93;;;;;;;;;;5032172;28;20230;-50
2023/04/13 10:47:13;;;;;;;1.23;1.00;;;;;;;;;;5030294;28;20176;-51
2023/04/13 10:49:40;;;;;;;1.05;0.75;;;;;;;;;;5035251;28;20190;-50
2023/04/13 10:52:06;;;;;;;1.90;0.93;;;;;;;;;;5036652;28;20188;-50
2023/04/13 10:54:34;;;;;;;1.33;0.90;;;;;;;;;;5029662;28;20196;-50
2023/04/13 10:57:02;;;;;;;0.80;0.80;;;;;;;;;;5036157;28;20198;-50
2023/04/13 10:59:37;;;;;;;1.00;0.80;;;;;;;;;;5036789;28;20482;-50
2023/04/13 11:02:08;;;;;;;1.15;0.90;;;;;;;;;;5033203;28;20183;-50
2023/04/13 11:04:37;;;;;;;0.90;0.80;;;;;;;;;;5027901;28;20204;-50
2023/04/13 11:07:05;;;;;;;1.00;0.60;;;;;;;;;;5036119;28;20176;-50
2023/04/13 11:09:31;;;;;;;0.98;0.88;;;;;;;;;;5035642;28;20183;-50
2023/04/13 11:11:56;;;;;;;0.80;0.80;;;;;;;;;;5033307;28;20189;-50
2023/04/13 11:14:22;;;;;;;1.45;0.90;;;;;;;;;;5033937;28;20180;-50
2023/04/13 11:16:48;;;;;;;0.85;0.75;;;;;;;;;;5035870;28;20598;-50
2023/04/13 11:19:14;;;;;;;0.98;0.70;;;;;;;;;;5035888;28;20227;-50
2023/04/13 11:21:43;;;;;;;0.57;0.57;;;;;;;;;;5036322;28;20180;-51
2023/04/13 11:24:09;;;;;;;1.15;0.90;;;;;;;;;;5036026;28;20180;-50
2023/04/13 11:26:36;;;;;;;1.10;0.90;;;;;;;;;;5026781;28;20494;-50
2023/04/13 11:29:03;;;;;;;1.23;0.70;;;;;;;;;;5029547;28;20212;-50
2023/04/13 11:31:36;;;;;;;1.50;0.80;;;;;;;;;;5035514;28;20188;-50
2023/04/13 11:34:04;;;;;;;1.38;0.80;;;;;;;;;;5035496;28;20188;-50
2023/04/13 11:36:31;;;;;;;0.90;0.90;;;;;;;;;;5036115;28;20188;-50
2023/04/13 11:38:58;;;;;;;0.82;0.77;;;;;;;;;;5036364;28;20524;-50
2023/04/13 11:41:27;;;;;;;1.00;0.90;;;;;;;;;;5033455;28;20551;-50
2023/04/13 11:43:53;;;;;;;0.95;0.70;;;;;;;;;;5035714;28;20211;-50
2023/04/13 11:46:24;;;;;;;0.50;0.50;;;;;;;;;;5035200;28;20198;-49
2023/04/13 11:48:51;;;;;;;1.60;0.93;;;;;;;;;;5036285;28;20184;-50
2023/04/13 11:51:17;;;;;;;0.68;0.68;;;;;;;;;;5034765;28;20621;-50
2023/04/13 11:53:44;;;;;;;2.65;0.70;;;;;;;;;;5035550;28;20598;-51
2023/04/13 11:56:10;;;;;;;0.95;0.80;;;;;;;;;;5035485;28;20254;-50
2023/04/13 11:58:37;;;;;;;3.90;0.90;;;;;;;;;;5033539;28;20586;-50
2023/04/13 12:01:07;;;;;;;1.30;0.98;;;;;;;;;;5036243;28;20167;-50
2023/04/13 12:03:34;;;;;;;1.13;1.00;;;;;;;;;;5036047;28;20446;-50
2023/04/13 12:06:00;;;;;;;0.90;0.90;;;;;;;;;;5026714;28;20532;-51
2023/04/13 12:08:28;;;;;;;1.52;0.82;;;;;;;;;;5034685;28;20184;-50
2023/04/13 12:10:59;;;;;;;0.82;0.82;;;;;;;;;;5035997;28;20215;-50
2023/04/13 12:13:26;;;;;;;1.60;0.90;;;;;;;;;;5035567;28;20188;-50
2023/04/13 12:15:52;;;;;;;0.95;0.90;;;;;;;;;;5029826;28;21443;-50
2023/04/13 12:18:22;;;;;;;1.45;0.95;;;;;;;;;;5034380;28;20214;-50
2023/04/13 12:20:48;;;;;;;2.50;0.90;;;;;;;;;;5034126;28;20215;-50
2023/04/13 12:23:18;;;;;;;1.65;1.02;;;;;;;;;;5033561;28;20188;-50
2023/04/13 12:25:54;;;;;;;2.03;1.00;;;;;;;;;;5031405;28;20269;-51
2023/04/13 12:28:20;;;;;;;1.13;0.82;;;;;;;;;;5028840;28;20184;-50
2023/04/13 12:30:46;;;;;;;1.25;1.10;;;;;;;;;;5034375;28;20206;-50
2023/04/13 12:33:12;;;;;;;1.90;1.00;;;;;;;;;;5034279;28;20184;-50
2023/04/13 12:35:38;;;;;;;4.05;1.23;;;;;;;;;;5032181;28;20520;-51
2023/04/13 12:38:05;;;;;;;5.50;1.20;;;;;;;;;;5032654;28;20519;-50
2023/04/13 12:40:32;;;;;;;3.47;1.00;;;;;;;;;;5035602;28;20207;-51
2023/04/13 12:42:58;;;;;;;3.85;1.30;;;;;;;;;;5029541;28;20226;-50
2023/04/13 12:45:24;;;;;;;3.28;1.30;;;;;;;;;;5032732;28;20490;-50
2023/04/13 12:47:50;;;;;;;2.72;1.27;;;;;;;;;;5026441;28;20216;-50
2023/04/13 12:50:16;;;;;;;2.70;0.98;;;;;;;;;;5035396;28;20217;-50
2023/04/13 12:52:43;;;;;;;2.50;1.10;;;;;;;;;;5029700;28;20540;-50
2023/04/13 12:55:09;;;;;;;4.78;1.20;;;;;;;;;;5035001;28;20229;-50
2023/04/13 12:57:35;;;;;;;4.75;1.20;;;;;;;;;;5031107;28;20481;-50
2023/04/13 13:00:01;;;;;;;5.15;1.00;;;;;;;;;;5025856;28;20193;-50
2023/04/13 13:02:29;;;;;;;2.38;1.20;;;;;;;;;;5029305;28;20184;-50
2023/04/13 13:04:55;;;;;;;2.35;0.88;;;;;;;;;;5034304;28;20586;-50
2023/04/13 13:07:22;;;;;;;3.53;1.10;;;;;;;;;;5033648;28;20192;-50
2023/04/13 13:09:48;;;;;;;2.85;1.10;;;;;;;;;;5026501;28;20211;-50
2023/04/13 13:12:14;;;;;;;3.90;1.00;;;;;;;;;;5030329;28;20305;-50
2023/04/13 13:14:40;;;;;;;3.22;1.33;;;;;;;;;;5034075;28;20258;-50
2023/04/13 13:17:06;;;;;;;2.40;1.10;;;;;;;;;;5033465;28;20286;-51
2023/04/13 13:19:32;;;;;;;1.83;0.95;;;;;;;;;;5033706;28;20242;-50
2023/04/13 13:21:59;;;;;;;3.92;1.10;;;;;;;;;;5025955;28;20249;-50
2023/04/13 13:24:25;;;;;;;4.88;1.00;;;;;;;;;;5031244;28;20171;-50
2023/04/13 13:26:51;;;;;;;4.40;1.10;;;;;;;;;;5030531;28;20191;-51
2023/04/13 13:29:18;;;;;;;2.20;1.00;;;;;;;;;;5027893;28;20187;-50
2023/04/13 13:31:44;;;;;;;4.90;1.20;;;;;;;;;;5031962;28;20206;-50
2023/04/13 13:34:10;;;;;;;1.42;0.93;;;;;;;;;;5032820;28;20238;-50
2023/04/13 13:36:36;;;;;;;4.22;1.00;;;;;;;;;;5028592;28;20289;-50
2023/04/13 13:39:04;;;;;;;2.63;0.90;;;;;;;;;;5029165;28;20214;-50
2023/04/13 13:41:31;;;;;;;4.63;1.48;;;;;;;;;;5032019;28;20199;-50
2023/04/13 13:43:57;;;;;;;2.25;1.00;;;;;;;;;;5029703;28;20173;-51
2023/04/13 13:46:23;;;;;;;4.45;0.98;;;;;;;;;;5030498;28;20191;-50
2023/04/13 13:48:49;;;;;;;2.78;0.88;;;;;;;;;;5032730;28;20191;-50
2023/04/13 13:51:15;;;;;;;1.80;1.10;;;;;;;;;;5031908;28;20175;-51
2023/04/13 13:53:41;;;;;;;2.65;0.90;;;;;;;;;;5030226;28;20218;-50
2023/04/13 13:56:06;;;;;;;2.03;1.00;;;;;;;;;;5030880;28;20188;-51
2023/04/13 13:58:32;;;;;;;2.00;1.17;;;;;;;;;;5030218;28;20215;-51
2023/04/13 14:00:58;;;;;;;3.58;1.20;;;;;;;;;;5028900;28;20254;-50
2023/04/13 14:03:24;;;;;;;3.33;1.02;;;;;;;;;;5033736;28;20188;-50
2023/04/13 14:05:50;;;;;;;3.00;1.25;;;;;;;;;;5034124;28;20241;-50
2023/04/13 14:08:16;;;;;;;1.92;0.90;;;;;;;;;;5027766;28;20198;-51
2023/04/13 14:10:47;;;;;;;3.03;1.10;;;;;;;;;;5030887;28;20249;-50
2023/04/13 14:13:13;;;;;;;3.88;1.13;;;;;;;;;;5033399;28;20225;-50
2023/04/13 14:15:38;;;;;;;1.50;0.80;;;;;;;;;;5034014;28;20184;-50
2023/04/13 14:18:04;;;;;;;2.05;0.90;;;;;;;;;;5029365;28;20204;-50
2023/04/13 14:20:31;;;;;;;1.50;0.90;;;;;;;;;;5032222;28;20191;-50
2023/04/13 14:22:57;;;;;;;2.17;0.90;;;;;;;;;;5032819;28;20259;-51
2023/04/13 14:25:23;;;;;;;1.40;0.70;;;;;;;;;;5016937;28;20234;-50
2023/04/13 14:27:49;;;;;;;2.40;1.10;;;;;;;;;;5021415;28;20208;-50
2023/04/13 14:30:16;;;;;;;1.55;0.65;;;;;;;;;;5026582;28;20528;-50
2023/04/13 14:32:42;;;;;;;0.88;0.75;;;;;;;;;;5036789;28;20211;-50